sensor_id;sensor_type;location;lat;lon;timestamp;temperature;humidity
73576;DHT22;61859;49.204;8.140;2023-02-01T00:02:24;4.90;99.90
73576;DHT22;61859;49.204;8.140;2023-02-01T00:04:49;4.90;99.90
73576;DHT22;61859;49.204;8.140;2023-02-01T00:07:15;4.90;99.90
73576;DHT22;61859;49.204;8.140;2023-02-01T00:09:40;4.90;99.90
73576;DHT22;61859;49.204;8.140;2023-02-01T00:12:06;4.80;99.90
73576;DHT22;61859;49.204;8.140;2023-02-01T00:14:31;5.00;99.90
73576;DHT22;61859;49.204;8.140;2023-02-01T00:17:04;5.00;99.90
73576;DHT22;61859;49.204;8.140;2023-02-01T00:19:30;5.00;99.90
73576;DHT22;61859;49.204;8.140;2023-02-01T00:21:56;5.00;99.90
73576;DHT22;61859;49.204;8.140;2023-02-01T00:24:21;4.80;99.90
73576;DHT22;61859;49.204;8.140;2023-02-01T00:26:47;4.80;99.90
73576;DHT22;61859;49.204;8.140;2023-02-01T00:29:16;4.90;99.90
73576;DHT22;61859;49.204;8.140;2023-02-01T00:31:42;4.80;99.90
73576;DHT22;61859;49.204;8.140;2023-02-01T00:34:10;4.90;99.90
73576;DHT22;61859;49.204;8.140;2023-02-01T00:36:37;4.80;99.90
73576;DHT22;61859;49.204;8.140;2023-02-01T00:39:02;4.90;99.90
73576;DHT22;61859;49.204;8.140;2023-02-01T00:41:28;4.90;99.90
73576;DHT22;61859;49.204;8.140;2023-02-01T00:43:53;5.00;99.90
73576;DHT22;61859;49.204;8.140;2023-02-01T00:46:19;5.00;99.90
73576;DHT22;61859;49.204;8.140;2023-02-01T00:48:45;5.00;99.90
73576;DHT22;61859;49.204;8.140;2023-02-01T00:51:14;5.00;99.90
73576;DHT22;61859;49.204;8.140;2023-02-01T00:53:40;5.00;99.90
73576;DHT22;61859;49.204;8.140;2023-02-01T00:56:06;4.80;99.90
73576;DHT22;61859;49.204;8.140;2023-02-01T00:58:32;5.10;99.90
73576;DHT22;61859;49.204;8.140;2023-02-01T01:03:32;5.10;99.90
73576;DHT22;61859;49.204;8.140;2023-02-01T01:05:59;5.10;99.90
73576;DHT22;61859;49.204;8.140;2023-02-01T01:08:25;5.00;99.90
73576;DHT22;61859;49.204;8.140;2023-02-01T01:10:51;5.20;99.90
73576;DHT22;61859;49.204;8.140;2023-02-01T01:13:16;5.20;99.90
73576;DHT22;61859;49.204;8.140;2023-02-01T01:15:42;5.10;99.90
73576;DHT22;61859;49.204;8.140;2023-02-01T01:18:08;5.10;99.90
73576;DHT22;61859;49.204;8.140;2023-02-01T01:20:35;5.10;99.90
73576;DHT22;61859;49.204;8.140;2023-02-01T01:23:01;5.20;99.90
73576;DHT22;61859;49.204;8.140;2023-02-01T01:25:26;5.10;99.90
73576;DHT22;61859;49.204;8.140;2023-02-01T01:27:52;5.30;99.90
73576;DHT22;61859;49.204;8.140;2023-02-01T01:30:17;5.10;99.90
73576;DHT22;61859;49.204;8.140;2023-02-01T01:32:43;5.30;99.90
73576;DHT22;61859;49.204;8.140;2023-02-01T01:35:09;5.20;99.90
73576;DHT22;61859;49.204;8.140;2023-02-01T01:37:35;5.00;99.90
73576;DHT22;61859;49.204;8.140;2023-02-01T01:40:02;5.20;99.90
73576;DHT22;61859;49.204;8.140;2023-02-01T01:42:27;5.20;99.90
73576;DHT22;61859;49.204;8.140;2023-02-01T01:45:03;5.20;99.90
73576;DHT22;61859;49.204;8.140;2023-02-01T01:47:35;5.00;99.90
73576;DHT22;61859;49.204;8.140;2023-02-01T01:50:04;4.90;99.90
73576;DHT22;61859;49.204;8.140;2023-02-01T01:52:31;5.00;99.90
73576;DHT22;61859;49.204;8.140;2023-02-01T01:54:58;5.20;99.90
73576;DHT22;61859;49.204;8.140;2023-02-01T01:57:28;5.10;99.90
73576;DHT22;61859;49.204;8.140;2023-02-01T02:00:07;5.00;99.90
73576;DHT22;61859;49.204;8.140;2023-02-01T02:02:33;5.10;99.90
73576;DHT22;61859;49.204;8.140;2023-02-01T02:05:00;5.00;99.90
73576;DHT22;61859;49.204;8.140;2023-02-01T02:07:29;5.10;99.90
73576;DHT22;61859;49.204;8.140;2023-02-01T02:09:56;5.20;99.90
73576;DHT22;61859;49.204;8.140;2023-02-01T02:12:22;5.10;99.90
73576;DHT22;61859;49.204;8.140;2023-02-01T02:14:47;5.20;99.90
73576;DHT22;61859;49.204;8.140;2023-02-01T02:17:25;5.20;99.90
73576;DHT22;61859;49.204;8.140;2023-02-01T02:20:31;5.10;99.90
73576;DHT22;61859;49.204;8.140;2023-02-01T02:32:41;5.20;99.90
73576;DHT22;61859;49.204;8.140;2023-02-01T02:43:10;5.20;99.90
73576;DHT22;61859;49.204;8.140;2023-02-01T02:46:04;5.20;99.90
73576;DHT22;61859;49.204;8.140;2023-02-01T02:49:05;5.60;99.90
73576;DHT22;61859;49.204;8.140;2023-02-01T02:51:42;5.50;99.90
73576;DHT22;61859;49.204;8.140;2023-02-01T02:54:36;5.40;99.90
73576;DHT22;61859;49.204;8.140;2023-02-01T02:57:19;5.70;99.90
73576;DHT22;61859;49.204;8.140;2023-02-01T03:00:07;5.80;99.90
73576;DHT22;61859;49.204;8.140;2023-02-01T03:02:52;5.70;99.80
73576;DHT22;61859;49.204;8.140;2023-02-01T03:05:41;5.70;99.80
73576;DHT22;61859;49.204;8.140;2023-02-01T03:08:21;5.70;99.90
73576;DHT22;61859;49.204;8.140;2023-02-01T03:11:06;5.70;99.90
73576;DHT22;61859;49.204;8.140;2023-02-01T03:13:41;5.60;99.80
73576;DHT22;61859;49.204;8.140;2023-02-01T03:16:36;5.80;99.70
73576;DHT22;61859;49.204;8.140;2023-02-01T03:21:53;5.80;99.60
73576;DHT22;61859;49.204;8.140;2023-02-01T03:24:25;5.80;99.60
73576;DHT22;61859;49.204;8.140;2023-02-01T03:27:04;5.60;99.40
73576;DHT22;61859;49.204;8.140;2023-02-01T03:29:37;5.90;99.50
73576;DHT22;61859;49.204;8.140;2023-02-01T03:32:04;5.70;99.50
73576;DHT22;61859;49.204;8.140;2023-02-01T03:34:30;5.60;99.60
73576;DHT22;61859;49.204;8.140;2023-02-01T03:37:01;5.90;99.50
73576;DHT22;61859;49.204;8.140;2023-02-01T03:39:48;5.80;99.20
73576;DHT22;61859;49.204;8.140;2023-02-01T03:42:21;5.70;99.40
73576;DHT22;61859;49.204;8.140;2023-02-01T03:45:01;5.80;99.10
73576;DHT22;61859;49.204;8.140;2023-02-01T03:47:30;5.80;99.40
73576;DHT22;61859;49.204;8.140;2023-02-01T03:50:09;5.90;99.80
73576;DHT22;61859;49.204;8.140;2023-02-01T03:52:42;5.80;99.90
73576;DHT22;61859;49.204;8.140;2023-02-01T03:55:10;5.80;99.90
73576;DHT22;61859;49.204;8.140;2023-02-01T03:57:43;5.60;99.90
73576;DHT22;61859;49.204;8.140;2023-02-01T04:00:16;5.60;99.90
73576;DHT22;61859;49.204;8.140;2023-02-01T04:02:42;5.60;99.90
73576;DHT22;61859;49.204;8.140;2023-02-01T04:05:08;5.50;99.90
73576;DHT22;61859;49.204;8.140;2023-02-01T04:07:34;5.60;99.90
73576;DHT22;61859;49.204;8.140;2023-02-01T04:09:59;5.60;99.90
73576;DHT22;61859;49.204;8.140;2023-02-01T04:12:25;5.60;99.90
73576;DHT22;61859;49.204;8.140;2023-02-01T04:14:51;5.70;99.90
73576;DHT22;61859;49.204;8.140;2023-02-01T04:17:16;5.70;99.90
73576;DHT22;61859;49.204;8.140;2023-02-01T04:19:42;5.60;99.90
73576;DHT22;61859;49.204;8.140;2023-02-01T04:22:07;5.60;99.90
73576;DHT22;61859;49.204;8.140;2023-02-01T04:24:33;5.70;99.90
73576;DHT22;61859;49.204;8.140;2023-02-01T04:26:58;5.40;99.90
73576;DHT22;61859;49.204;8.140;2023-02-01T04:29:24;5.40;99.90
73576;DHT22;61859;49.204;8.140;2023-02-01T04:31:49;5.40;99.90
73576;DHT22;61859;49.204;8.140;2023-02-01T04:34:15;5.30;99.90
73576;DHT22;61859;49.204;8.140;2023-02-01T04:36:41;5.30;99.90
73576;DHT22;61859;49.204;8.140;2023-02-01T04:39:08;5.20;99.90
73576;DHT22;61859;49.204;8.140;2023-02-01T04:41:33;5.20;99.90
73576;DHT22;61859;49.204;8.140;2023-02-01T04:43:59;5.10;99.90
73576;DHT22;61859;49.204;8.140;2023-02-01T04:46:25;5.10;99.90
73576;DHT22;61859;49.204;8.140;2023-02-01T04:48:50;5.20;99.90
73576;DHT22;61859;49.204;8.140;2023-02-01T04:51:16;5.20;99.90
73576;DHT22;61859;49.204;8.140;2023-02-01T04:53:43;5.00;99.90
73576;DHT22;61859;49.204;8.140;2023-02-01T04:56:09;5.10;99.90
73576;DHT22;61859;49.204;8.140;2023-02-01T04:58:35;5.10;99.90
73576;DHT22;61859;49.204;8.140;2023-02-01T05:01:04;5.00;99.90
73576;DHT22;61859;49.204;8.140;2023-02-01T05:03:31;5.10;99.90
73576;DHT22;61859;49.204;8.140;2023-02-01T05:05:56;5.20;99.90
73576;DHT22;61859;49.204;8.140;2023-02-01T05:08:22;5.20;99.90
73576;DHT22;61859;49.204;8.140;2023-02-01T05:10:48;5.20;99.90
73576;DHT22;61859;49.204;8.140;2023-02-01T05:13:14;5.40;99.90
73576;DHT22;61859;49.204;8.140;2023-02-01T05:15:58;5.30;99.90
73576;DHT22;61859;49.204;8.140;2023-02-01T05:18:23;5.40;99.90
73576;DHT22;61859;49.204;8.140;2023-02-01T05:20:49;5.50;99.90
73576;DHT22;61859;49.204;8.140;2023-02-01T05:23:14;5.50;99.90
73576;DHT22;61859;49.204;8.140;2023-02-01T05:25:40;5.40;99.90
73576;DHT22;61859;49.204;8.140;2023-02-01T05:28:05;5.50;99.90
73576;DHT22;61859;49.204;8.140;2023-02-01T05:30:31;5.40;99.90
73576;DHT22;61859;49.204;8.140;2023-02-01T05:32:57;5.50;99.90
73576;DHT22;61859;49.204;8.140;2023-02-01T05:35:23;5.50;99.90
73576;DHT22;61859;49.204;8.140;2023-02-01T05:37:48;5.50;99.90
73576;DHT22;61859;49.204;8.140;2023-02-01T05:40:14;5.50;99.90
73576;DHT22;61859;49.204;8.140;2023-02-01T05:42:39;5.50;99.90
73576;DHT22;61859;49.204;8.140;2023-02-01T05:45:06;5.40;99.90
73576;DHT22;61859;49.204;8.140;2023-02-01T05:47:32;5.40;99.90
73576;DHT22;61859;49.204;8.140;2023-02-01T05:49:58;5.40;99.90
73576;DHT22;61859;49.204;8.140;2023-02-01T05:52:24;5.40;99.90
73576;DHT22;61859;49.204;8.140;2023-02-01T05:54:49;5.30;99.90
73576;DHT22;61859;49.204;8.140;2023-02-01T05:57:15;5.30;99.90
73576;DHT22;61859;49.204;8.140;2023-02-01T05:59:40;5.20;99.90
73576;DHT22;61859;49.204;8.140;2023-02-01T06:02:07;5.20;99.90
73576;DHT22;61859;49.204;8.140;2023-02-01T06:04:33;5.20;99.90
73576;DHT22;61859;49.204;8.140;2023-02-01T06:06:59;5.30;99.90
73576;DHT22;61859;49.204;8.140;2023-02-01T06:09:24;5.30;99.90
73576;DHT22;61859;49.204;8.140;2023-02-01T06:11:50;5.20;99.90
73576;DHT22;61859;49.204;8.140;2023-02-01T06:14:15;5.20;99.90
73576;DHT22;61859;49.204;8.140;2023-02-01T06:16:41;5.30;99.90
73576;DHT22;61859;49.204;8.140;2023-02-01T06:19:07;5.20;99.90
73576;DHT22;61859;49.204;8.140;2023-02-01T06:21:32;5.20;99.90
73576;DHT22;61859;49.204;8.140;2023-02-01T06:23:58;5.20;99.90
73576;DHT22;61859;49.204;8.140;2023-02-01T06:26:24;5.40;99.90
73576;DHT22;61859;49.204;8.140;2023-02-01T06:28:50;5.20;99.90
73576;DHT22;61859;49.204;8.140;2023-02-01T06:31:15;5.20;99.90
73576;DHT22;61859;49.204;8.140;2023-02-01T06:33:41;5.10;99.90
73576;DHT22;61859;49.204;8.140;2023-02-01T06:36:09;5.00;99.90
73576;DHT22;61859;49.204;8.140;2023-02-01T06:38:35;5.20;99.90
73576;DHT22;61859;49.204;8.140;2023-02-01T06:41:01;5.00;99.90
73576;DHT22;61859;49.204;8.140;2023-02-01T06:43:27;5.20;99.90
73576;DHT22;61859;49.204;8.140;2023-02-01T06:46:00;5.20;99.90
73576;DHT22;61859;49.204;8.140;2023-02-01T06:48:26;5.10;99.90
73576;DHT22;61859;49.204;8.140;2023-02-01T06:50:51;5.10;99.90
73576;DHT22;61859;49.204;8.140;2023-02-01T06:53:17;5.00;99.90
73576;DHT22;61859;49.204;8.140;2023-02-01T06:56:01;5.10;99.90
73576;DHT22;61859;49.204;8.140;2023-02-01T06:58:31;5.20;99.90
73576;DHT22;61859;49.204;8.140;2023-02-01T07:00:57;5.30;99.90
73576;DHT22;61859;49.204;8.140;2023-02-01T07:03:23;5.20;99.90
73576;DHT22;61859;49.204;8.140;2023-02-01T07:05:49;5.10;99.90
73576;DHT22;61859;49.204;8.140;2023-02-01T07:08:14;5.20;99.90
73576;DHT22;61859;49.204;8.140;2023-02-01T07:10:40;5.30;99.90
73576;DHT22;61859;49.204;8.140;2023-02-01T07:13:06;5.30;99.90
73576;DHT22;61859;49.204;8.140;2023-02-01T07:15:31;5.30;99.90
73576;DHT22;61859;49.204;8.140;2023-02-01T07:17:57;5.30;99.90
73576;DHT22;61859;49.204;8.140;2023-02-01T07:20:23;5.30;99.90
73576;DHT22;61859;49.204;8.140;2023-02-01T07:22:48;5.40;99.90
73576;DHT22;61859;49.204;8.140;2023-02-01T07:25:14;5.50;99.90
73576;DHT22;61859;49.204;8.140;2023-02-01T07:27:39;5.30;99.90
73576;DHT22;61859;49.204;8.140;2023-02-01T07:30:06;5.40;99.90
73576;DHT22;61859;49.204;8.140;2023-02-01T07:32:32;5.50;99.90
73576;DHT22;61859;49.204;8.140;2023-02-01T07:34:58;5.40;99.90
73576;DHT22;61859;49.204;8.140;2023-02-01T07:37:24;5.30;99.90
73576;DHT22;61859;49.204;8.140;2023-02-01T07:39:50;5.50;99.90
73576;DHT22;61859;49.204;8.140;2023-02-01T07:42:16;5.50;99.90
73576;DHT22;61859;49.204;8.140;2023-02-01T07:44:42;5.50;99.60
73576;DHT22;61859;49.204;8.140;2023-02-01T07:47:08;5.60;99.40
73576;DHT22;61859;49.204;8.140;2023-02-01T07:49:33;5.60;99.20
73576;DHT22;61859;49.204;8.140;2023-02-01T07:51:59;5.70;98.80
73576;DHT22;61859;49.204;8.140;2023-02-01T07:54:24;5.60;99.20
73576;DHT22;61859;49.204;8.140;2023-02-01T07:56:50;5.60;99.00
73576;DHT22;61859;49.204;8.140;2023-02-01T07:59:15;5.40;99.20
73576;DHT22;61859;49.204;8.140;2023-02-01T08:01:41;5.50;99.00
73576;DHT22;61859;49.204;8.140;2023-02-01T08:04:11;5.70;98.60
73576;DHT22;61859;49.204;8.140;2023-02-01T08:06:37;5.60;99.00
73576;DHT22;61859;49.204;8.140;2023-02-01T08:09:03;5.60;98.80
73576;DHT22;61859;49.204;8.140;2023-02-01T08:11:29;5.60;99.10
73576;DHT22;61859;49.204;8.140;2023-02-01T08:13:55;5.70;99.00
73576;DHT22;61859;49.204;8.140;2023-02-01T08:16:21;5.80;98.70
73576;DHT22;61859;49.204;8.140;2023-02-01T08:18:47;5.60;97.90
73576;DHT22;61859;49.204;8.140;2023-02-01T08:23:41;5.80;97.80
73576;DHT22;61859;49.204;8.140;2023-02-01T08:26:08;5.80;97.90
73576;DHT22;61859;49.204;8.140;2023-02-01T08:28:34;5.80;98.30
73576;DHT22;61859;49.204;8.140;2023-02-01T08:31:04;5.80;98.70
73576;DHT22;61859;49.204;8.140;2023-02-01T08:33:30;5.80;98.80
73576;DHT22;61859;49.204;8.140;2023-02-01T08:35:55;5.80;99.00
73576;DHT22;61859;49.204;8.140;2023-02-01T08:38:21;5.70;98.90
73576;DHT22;61859;49.204;8.140;2023-02-01T08:40:46;5.70;98.80
73576;DHT22;61859;49.204;8.140;2023-02-01T08:43:12;5.80;99.00
73576;DHT22;61859;49.204;8.140;2023-02-01T08:45:39;5.70;98.50
73576;DHT22;61859;49.204;8.140;2023-02-01T08:48:05;5.70;97.60
73576;DHT22;61859;49.204;8.140;2023-02-01T08:50:30;5.70;97.20
73576;DHT22;61859;49.204;8.140;2023-02-01T08:52:56;6.00;96.60
73576;DHT22;61859;49.204;8.140;2023-02-01T08:55:21;5.80;96.20
73576;DHT22;61859;49.204;8.140;2023-02-01T08:57:47;6.00;96.60
73576;DHT22;61859;49.204;8.140;2023-02-01T09:00:15;5.90;95.20
73576;DHT22;61859;49.204;8.140;2023-02-01T09:02:41;5.80;95.40
73576;DHT22;61859;49.204;8.140;2023-02-01T09:05:07;6.00;95.00
73576;DHT22;61859;49.204;8.140;2023-02-01T09:07:33;6.00;95.00
73576;DHT22;61859;49.204;8.140;2023-02-01T09:09:59;6.10;94.20
73576;DHT22;61859;49.204;8.140;2023-02-01T09:12:29;6.20;94.10
73576;DHT22;61859;49.204;8.140;2023-02-01T09:14:56;6.30;93.40
73576;DHT22;61859;49.204;8.140;2023-02-01T09:17:22;6.20;92.80
73576;DHT22;61859;49.204;8.140;2023-02-01T09:19:48;6.20;93.20
73576;DHT22;61859;49.204;8.140;2023-02-01T09:22:14;6.30;92.80
73576;DHT22;61859;49.204;8.140;2023-02-01T09:24:41;6.50;92.90
73576;DHT22;61859;49.204;8.140;2023-02-01T09:27:06;6.50;91.90
73576;DHT22;61859;49.204;8.140;2023-02-01T09:29:32;6.50;91.30
73576;DHT22;61859;49.204;8.140;2023-02-01T09:31:57;6.50;90.50
73576;DHT22;61859;49.204;8.140;2023-02-01T09:34:23;6.70;90.30
73576;DHT22;61859;49.204;8.140;2023-02-01T09:36:49;6.70;89.50
73576;DHT22;61859;49.204;8.140;2023-02-01T09:39:14;6.70;89.00
73576;DHT22;61859;49.204;8.140;2023-02-01T09:47:18;6.50;90.10
73576;DHT22;61859;49.204;8.140;2023-02-01T09:50:00;6.50;90.50
73576;DHT22;61859;49.204;8.140;2023-02-01T09:52:36;6.60;90.00
73576;DHT22;61859;49.204;8.140;2023-02-01T09:55:16;6.60;90.60
73576;DHT22;61859;49.204;8.140;2023-02-01T09:57:58;6.60;90.90
73576;DHT22;61859;49.204;8.140;2023-02-01T10:00:33;6.50;91.30
73576;DHT22;61859;49.204;8.140;2023-02-01T10:03:00;6.70;89.60
73576;DHT22;61859;49.204;8.140;2023-02-01T10:06:38;6.60;89.50
73576;DHT22;61859;49.204;8.140;2023-02-01T10:09:05;6.60;89.50
73576;DHT22;61859;49.204;8.140;2023-02-01T10:20:59;6.80;87.90
73576;DHT22;61859;49.204;8.140;2023-02-01T10:25:56;6.80;87.80
73576;DHT22;61859;49.204;8.140;2023-02-01T10:28:24;6.70;88.60
73576;DHT22;61859;49.204;8.140;2023-02-01T10:30:56;6.60;88.00
73576;DHT22;61859;49.204;8.140;2023-02-01T10:33:25;6.70;87.60
73576;DHT22;61859;49.204;8.140;2023-02-01T10:36:09;6.80;87.50
73576;DHT22;61859;49.204;8.140;2023-02-01T10:38:35;6.80;87.60
73576;DHT22;61859;49.204;8.140;2023-02-01T10:41:09;6.80;87.30
73576;DHT22;61859;49.204;8.140;2023-02-01T10:43:37;6.80;87.30
73576;DHT22;61859;49.204;8.140;2023-02-01T10:46:04;6.70;87.90
73576;DHT22;61859;49.204;8.140;2023-02-01T10:48:31;6.90;86.80
73576;DHT22;61859;49.204;8.140;2023-02-01T10:51:00;6.80;87.00
73576;DHT22;61859;49.204;8.140;2023-02-01T10:53:35;6.90;86.80
73576;DHT22;61859;49.204;8.140;2023-02-01T10:56:08;6.90;86.80
73576;DHT22;61859;49.204;8.140;2023-02-01T10:58:36;6.90;86.20
73576;DHT22;61859;49.204;8.140;2023-02-01T11:01:08;6.90;85.80
73576;DHT22;61859;49.204;8.140;2023-02-01T11:03:55;6.70;85.90
73576;DHT22;61859;49.204;8.140;2023-02-01T11:09:15;6.80;86.10
73576;DHT22;61859;49.204;8.140;2023-02-01T11:14:34;6.90;85.00
73576;DHT22;61859;49.204;8.140;2023-02-01T11:17:10;6.90;85.10
73576;DHT22;61859;49.204;8.140;2023-02-01T11:19:45;6.90;84.90
73576;DHT22;61859;49.204;8.140;2023-02-01T11:22:12;6.90;85.50
73576;DHT22;61859;49.204;8.140;2023-02-01T11:24:38;7.00;84.90
73576;DHT22;61859;49.204;8.140;2023-02-01T11:27:11;7.10;84.70
73576;DHT22;61859;49.204;8.140;2023-02-01T11:29:43;7.00;85.10
73576;DHT22;61859;49.204;8.140;2023-02-01T11:32:13;7.10;84.80
73576;DHT22;61859;49.204;8.140;2023-02-01T11:37:19;6.80;83.90
73576;DHT22;61859;49.204;8.140;2023-02-01T11:39:54;6.90;84.60
73576;DHT22;61859;49.204;8.140;2023-02-01T11:42:20;6.90;85.30
73576;DHT22;61859;49.204;8.140;2023-02-01T11:44:46;6.80;85.50
73576;DHT22;61859;49.204;8.140;2023-02-01T11:47:39;6.80;85.20
73576;DHT22;61859;49.204;8.140;2023-02-01T11:50:16;6.80;84.70
73576;DHT22;61859;49.204;8.140;2023-02-01T11:55:54;6.80;83.80
73576;DHT22;61859;49.204;8.140;2023-02-01T11:58:43;6.90;83.80
73576;DHT22;61859;49.204;8.140;2023-02-01T12:01:29;7.00;84.60
73576;DHT22;61859;49.204;8.140;2023-02-01T12:07:18;7.20;83.70
73576;DHT22;61859;49.204;8.140;2023-02-01T12:18:30;7.00;82.60
73576;DHT22;61859;49.204;8.140;2023-02-01T12:32:11;7.00;82.70
73576;DHT22;61859;49.204;8.140;2023-02-01T12:37:45;7.00;83.00
73576;DHT22;61859;49.204;8.140;2023-02-01T12:43:09;7.00;82.20
73576;DHT22;61859;49.204;8.140;2023-02-01T12:45:40;7.20;82.20
73576;DHT22;61859;49.204;8.140;2023-02-01T12:50:56;7.30;81.80
73576;DHT22;61859;49.204;8.140;2023-02-01T12:53:30;7.20;81.90
73576;DHT22;61859;49.204;8.140;2023-02-01T12:56:14;7.20;81.60
73576;DHT22;61859;49.204;8.140;2023-02-01T12:58:48;7.40;81.20
73576;DHT22;61859;49.204;8.140;2023-02-01T13:01:21;7.30;81.40
73576;DHT22;61859;49.204;8.140;2023-02-01T13:04:12;7.20;82.10
73576;DHT22;61859;49.204;8.140;2023-02-01T13:07:11;7.20;81.50
73576;DHT22;61859;49.204;8.140;2023-02-01T13:10:03;7.20;81.50
73576;DHT22;61859;49.204;8.140;2023-02-01T13:12:38;7.20;81.80
73576;DHT22;61859;49.204;8.140;2023-02-01T13:15:32;7.30;80.60
73576;DHT22;61859;49.204;8.140;2023-02-01T13:18:02;7.10;81.20
73576;DHT22;61859;49.204;8.140;2023-02-01T13:20:35;7.20;81.00
73576;DHT22;61859;49.204;8.140;2023-02-01T13:23:09;7.10;80.80
73576;DHT22;61859;49.204;8.140;2023-02-01T13:25:50;7.50;80.90
73576;DHT22;61859;49.204;8.140;2023-02-01T13:39:25;7.60;80.00
73576;DHT22;61859;49.204;8.140;2023-02-01T13:42:02;7.60;79.20
73576;DHT22;61859;49.204;8.140;2023-02-01T13:44:39;7.40;78.40
73576;DHT22;61859;49.204;8.140;2023-02-01T13:47:18;7.60;79.40
73576;DHT22;61859;49.204;8.140;2023-02-01T13:49:46;7.80;79.30
73576;DHT22;61859;49.204;8.140;2023-02-01T13:52:38;7.80;78.60
73576;DHT22;61859;49.204;8.140;2023-02-01T13:57:46;7.90;78.70
73576;DHT22;61859;49.204;8.140;2023-02-01T14:00:31;8.00;77.70
73576;DHT22;61859;49.204;8.140;2023-02-01T14:10:56;7.90;77.60
73576;DHT22;61859;49.204;8.140;2023-02-01T14:13:35;7.80;77.80
73576;DHT22;61859;49.204;8.140;2023-02-01T14:21:31;8.20;76.50
73576;DHT22;61859;49.204;8.140;2023-02-01T14:29:39;8.70;74.40
73576;DHT22;61859;49.204;8.140;2023-02-01T14:32:15;9.00;73.20
73576;DHT22;61859;49.204;8.140;2023-02-01T14:47:54;8.50;74.30
73576;DHT22;61859;49.204;8.140;2023-02-01T14:55:30;8.20;76.70
73576;DHT22;61859;49.204;8.140;2023-02-01T14:58:02;8.10;76.50
73576;DHT22;61859;49.204;8.140;2023-02-01T15:00:31;8.10;77.10
73576;DHT22;61859;49.204;8.140;2023-02-01T15:03:33;8.00;77.80
73576;DHT22;61859;49.204;8.140;2023-02-01T15:06:00;7.80;78.10
73576;DHT22;61859;49.204;8.140;2023-02-01T15:08:33;7.80;78.50
73576;DHT22;61859;49.204;8.140;2023-02-01T15:11:05;7.90;78.50
73576;DHT22;61859;49.204;8.140;2023-02-01T15:13:32;7.80;78.70
73576;DHT22;61859;49.204;8.140;2023-02-01T15:16:12;7.80;78.80
73576;DHT22;61859;49.204;8.140;2023-02-01T15:18:38;7.70;78.90
73576;DHT22;61859;49.204;8.140;2023-02-01T15:21:05;7.70;79.30
73576;DHT22;61859;49.204;8.140;2023-02-01T15:23:32;7.90;79.00
73576;DHT22;61859;49.204;8.140;2023-02-01T15:25:58;7.90;79.20
73576;DHT22;61859;49.204;8.140;2023-02-01T15:28:25;7.80;78.60
73576;DHT22;61859;49.204;8.140;2023-02-01T15:31:05;7.90;79.00
73576;DHT22;61859;49.204;8.140;2023-02-01T15:33:33;7.80;79.10
73576;DHT22;61859;49.204;8.140;2023-02-01T15:38:34;7.60;79.50
73576;DHT22;61859;49.204;8.140;2023-02-01T15:41:09;7.70;79.80
73576;DHT22;61859;49.204;8.140;2023-02-01T15:43:41;7.60;80.00
73576;DHT22;61859;49.204;8.140;2023-02-01T15:46:13;7.70;80.00
73576;DHT22;61859;49.204;8.140;2023-02-01T15:48:44;7.60;79.70
73576;DHT22;61859;49.204;8.140;2023-02-01T15:51:19;7.60;80.40
73576;DHT22;61859;49.204;8.140;2023-02-01T15:54:06;7.40;80.30
73576;DHT22;61859;49.204;8.140;2023-02-01T15:56:37;7.50;80.30
73576;DHT22;61859;49.204;8.140;2023-02-01T15:59:05;7.50;80.80
73576;DHT22;61859;49.204;8.140;2023-02-01T16:01:38;7.40;81.10
73576;DHT22;61859;49.204;8.140;2023-02-01T16:04:22;7.30;81.70
73576;DHT22;61859;49.204;8.140;2023-02-01T16:06:52;7.40;81.70
73576;DHT22;61859;49.204;8.140;2023-02-01T16:09:20;7.30;82.00
73576;DHT22;61859;49.204;8.140;2023-02-01T16:11:58;7.30;82.20
73576;DHT22;61859;49.204;8.140;2023-02-01T16:14:24;7.10;82.30
73576;DHT22;61859;49.204;8.140;2023-02-01T16:16:52;7.30;82.40
73576;DHT22;61859;49.204;8.140;2023-02-01T16:19:18;7.20;82.50
73576;DHT22;61859;49.204;8.140;2023-02-01T16:21:45;7.30;82.30
73576;DHT22;61859;49.204;8.140;2023-02-01T16:24:10;7.30;82.50
73576;DHT22;61859;49.204;8.140;2023-02-01T16:26:36;7.20;82.70
73576;DHT22;61859;49.204;8.140;2023-02-01T16:29:03;7.20;82.70
73576;DHT22;61859;49.204;8.140;2023-02-01T16:31:35;7.20;82.50
73576;DHT22;61859;49.204;8.140;2023-02-01T16:34:02;7.20;82.70
73576;DHT22;61859;49.204;8.140;2023-02-01T16:36:27;7.20;82.80
73576;DHT22;61859;49.204;8.140;2023-02-01T16:38:54;7.20;82.60
73576;DHT22;61859;49.204;8.140;2023-02-01T16:41:21;7.20;82.70
73576;DHT22;61859;49.204;8.140;2023-02-01T16:43:51;7.20;82.20
73576;DHT22;61859;49.204;8.140;2023-02-01T16:46:20;7.20;82.60
73576;DHT22;61859;49.204;8.140;2023-02-01T16:48:52;7.10;82.30
73576;DHT22;61859;49.204;8.140;2023-02-01T16:51:18;7.10;82.40
73576;DHT22;61859;49.204;8.140;2023-02-01T16:53:45;7.20;82.40
73576;DHT22;61859;49.204;8.140;2023-02-01T16:56:14;7.10;82.50
73576;DHT22;61859;49.204;8.140;2023-02-01T16:58:41;7.10;82.60
73576;DHT22;61859;49.204;8.140;2023-02-01T17:01:11;7.10;82.60
73576;DHT22;61859;49.204;8.140;2023-02-01T17:03:38;7.00;83.00
73576;DHT22;61859;49.204;8.140;2023-02-01T17:06:06;7.10;83.10
73576;DHT22;61859;49.204;8.140;2023-02-01T17:08:35;7.00;83.20
73576;DHT22;61859;49.204;8.140;2023-02-01T17:11:02;7.00;83.10
73576;DHT22;61859;49.204;8.140;2023-02-01T17:13:28;6.90;83.10
73576;DHT22;61859;49.204;8.140;2023-02-01T17:16:09;7.00;83.00
73576;DHT22;61859;49.204;8.140;2023-02-01T17:18:37;7.00;83.20
73576;DHT22;61859;49.204;8.140;2023-02-01T17:21:04;7.00;83.40
73576;DHT22;61859;49.204;8.140;2023-02-01T17:23:30;7.00;83.30
73576;DHT22;61859;49.204;8.140;2023-02-01T17:25:56;6.80;83.50
73576;DHT22;61859;49.204;8.140;2023-02-01T17:28:22;6.90;83.70
73576;DHT22;61859;49.204;8.140;2023-02-01T17:30:48;6.80;83.80
73576;DHT22;61859;49.204;8.140;2023-02-01T17:33:24;6.80;83.40
73576;DHT22;61859;49.204;8.140;2023-02-01T17:35:51;6.80;83.50
73576;DHT22;61859;49.204;8.140;2023-02-01T17:38:17;6.80;83.20
73576;DHT22;61859;49.204;8.140;2023-02-01T17:40:43;6.70;83.30
73576;DHT22;61859;49.204;8.140;2023-02-01T17:43:13;6.80;83.50
73576;DHT22;61859;49.204;8.140;2023-02-01T17:45:44;6.70;83.60
73576;DHT22;61859;49.204;8.140;2023-02-01T17:48:14;6.70;84.00
73576;DHT22;61859;49.204;8.140;2023-02-01T17:50:40;6.50;84.00
73576;DHT22;61859;49.204;8.140;2023-02-01T17:53:06;6.60;84.10
73576;DHT22;61859;49.204;8.140;2023-02-01T17:55:35;6.50;84.30
73576;DHT22;61859;49.204;8.140;2023-02-01T17:58:01;6.60;84.10
73576;DHT22;61859;49.204;8.140;2023-02-01T18:00:26;6.60;84.00
73576;DHT22;61859;49.204;8.140;2023-02-01T18:02:52;6.70;84.00
73576;DHT22;61859;49.204;8.140;2023-02-01T18:05:54;6.60;84.20
73576;DHT22;61859;49.204;8.140;2023-02-01T18:08:27;6.80;84.10
73576;DHT22;61859;49.204;8.140;2023-02-01T18:10:55;6.70;84.20
73576;DHT22;61859;49.204;8.140;2023-02-01T18:13:24;6.70;84.30
73576;DHT22;61859;49.204;8.140;2023-02-01T18:15:49;6.60;84.60
73576;DHT22;61859;49.204;8.140;2023-02-01T18:18:15;6.80;84.70
73576;DHT22;61859;49.204;8.140;2023-02-01T18:20:42;6.60;84.90
73576;DHT22;61859;49.204;8.140;2023-02-01T18:23:20;6.70;84.90